sim
Sign-in with your pilot id or email,
or register
Callsign
Passwort

Schedule Details

Flight Number: DLH2247
Departure: Lyon Saint Exupery Airport (LFLL) at 07:55
Arrival: Munich Airport (EDDM) at 09:15
Route: Lufthansa Passenger Schedule. Enter filed route here before submitting Pirep.

Weather Information
Getting current METAR information for LFLL 282200Z 14005KT 9999 FEW003 OVC043 11/10 Q1020 NOSIG
Getting current METAR information for EDDM 282150Z VRB02KT CAVOK 08/07 Q1016 NOSIG

Schedule Frequency

Route Map